createdAt,value
2018-10-01T09:12:36.580Z,6.47
2018-10-01T09:15:06.601Z,5.90
2018-10-01T09:17:36.087Z,7.27
2018-10-01T09:20:06.574Z,5.47
2018-10-01T09:22:48.299Z,5.40
2018-10-01T09:25:19.376Z,5.20
2018-10-01T09:27:49.322Z,5.27
2018-10-01T09:30:19.896Z,6.03
2018-10-01T09:32:49.740Z,8.73
2018-10-01T09:35:19.648Z,6.00
2018-10-01T09:37:49.945Z,7.23
2018-10-01T09:40:19.529Z,6.30
2018-10-01T09:42:49.762Z,5.70
2018-10-01T09:45:19.384Z,5.23
2018-10-01T09:47:49.100Z,5.80
2018-10-01T09:50:18.791Z,6.37
2018-10-01T09:52:48.188Z,4.90
2018-10-01T09:55:25.396Z,6.63
2018-10-01T09:57:56.222Z,5.80
2018-10-01T10:00:32.219Z,6.23
2018-10-01T10:03:03.036Z,6.77
2018-10-01T10:05:33.390Z,5.07
2018-10-01T10:08:53.958Z,6.43
2018-10-01T10:11:33.756Z,5.40
2018-10-01T10:14:04.629Z,5.00
2018-10-01T10:16:35.949Z,6.03
2018-10-01T10:19:05.625Z,5.60
2018-10-01T10:21:44.519Z,5.53
2018-10-01T10:24:51.329Z,6.27
2018-10-01T10:28:01.301Z,5.23
2018-10-01T10:30:33.266Z,5.73
2018-10-01T10:33:04.070Z,5.03
2018-10-01T10:35:34.733Z,5.10
2018-10-01T10:38:05.209Z,5.40
2018-10-01T10:40:35.037Z,6.10
2018-10-01T10:43:04.878Z,5.70
2018-10-01T10:45:35.350Z,4.80
2018-10-01T10:48:10.611Z,5.33
2018-10-01T10:50:40.652Z,5.37
2018-10-01T10:53:46.923Z,6.77
2018-10-01T10:56:24.336Z,4.73
2018-10-01T11:02:31.539Z,7.00
2018-10-01T11:05:04.793Z,6.10
2018-10-01T11:31:24.713Z,4.90
2018-10-01T11:34:03.546Z,5.93
2018-10-01T11:36:34.080Z,7.40
2018-10-01T11:42:07.104Z,5.83
2018-10-01T11:44:36.842Z,6.50
2018-10-01T11:47:06.598Z,5.67
2018-10-01T11:49:36.988Z,5.17
2018-10-01T11:52:06.716Z,6.23
2018-10-01T11:54:36.331Z,5.70
2018-10-01T11:57:08.608Z,5.60
2018-10-01T11:59:38.631Z,5.70
2018-10-01T12:02:14.552Z,6.27
2018-10-01T12:21:35.017Z,5.27
2018-10-01T12:24:04.560Z,5.60
2018-10-01T12:26:33.990Z,5.13
2018-10-01T12:29:03.547Z,7.20
2018-10-01T12:31:32.940Z,5.27
2018-10-01T12:34:02.348Z,6.23
2018-10-01T12:36:31.760Z,7.10
2018-10-01T12:39:01.466Z,6.47
2018-10-01T12:41:30.988Z,6.80
2018-10-01T12:44:00.532Z,8.23
2018-10-01T12:46:30.048Z,7.47
2018-10-01T12:48:59.527Z,6.17
2018-10-01T12:52:03.733Z,6.83
2018-10-01T12:54:33.860Z,5.90
2018-10-01T12:57:03.972Z,5.90
2018-10-01T12:59:34.008Z,5.33
2018-10-01T13:02:03.650Z,6.00
2018-10-01T13:04:33.798Z,6.37
2018-10-01T13:07:03.392Z,5.97
2018-10-01T13:09:32.982Z,8.20
2018-10-01T13:12:02.665Z,7.07
2018-10-01T13:14:33.802Z,6.80
2018-10-01T13:17:03.144Z,5.63
2018-10-01T13:19:32.606Z,5.73
2018-10-01T13:22:08.679Z,6.57
2018-10-01T13:24:41.784Z,6.93
2018-10-01T13:27:12.262Z,6.10
2018-10-01T13:29:44.200Z,7.13
2018-10-01T13:32:14.148Z,5.40
2018-10-01T13:34:43.748Z,5.27
2018-10-01T13:37:13.426Z,7.13
2018-10-01T13:39:44.502Z,6.70
2018-10-01T13:42:14.678Z,5.60
2018-10-01T13:44:44.211Z,4.90
2018-10-01T13:47:13.684Z,5.87
2018-10-01T13:49:44.262Z,5.40
2018-10-01T13:52:14.036Z,7.83
2018-10-01T13:54:49.900Z,6.23
2018-10-01T13:57:20.693Z,6.00
2018-10-01T13:59:52.516Z,6.77
2018-10-01T14:02:22.187Z,9.70
2018-10-01T14:04:56.366Z,7.63
2018-10-01T14:07:27.022Z,6.00
2018-10-01T14:09:57.736Z,8.17
2018-10-01T14:12:28.272Z,7.00
2018-10-01T14:14:58.794Z,5.70
2018-10-01T14:20:08.906Z,6.30
2018-10-01T14:22:38.490Z,6.07
2018-10-01T14:25:08.187Z,5.80
2018-10-01T14:27:37.580Z,6.00
2018-10-01T14:30:07.059Z,6.87
2018-10-01T14:32:36.732Z,8.93
2018-10-01T14:35:06.866Z,9.13
2018-10-01T14:37:36.606Z,7.60
2018-10-01T14:40:06.972Z,7.33
2018-10-01T14:42:37.819Z,7.30
2018-10-01T14:45:08.859Z,6.63
2018-10-01T14:47:39.496Z,7.27
2018-10-01T14:50:09.013Z,8.57
2018-10-01T14:52:38.801Z,6.63
2018-10-01T14:55:08.208Z,6.67
2018-10-01T14:57:37.750Z,8.63
2018-10-01T15:00:09.032Z,11.10
2018-10-01T15:02:38.788Z,5.67
2018-10-01T15:05:08.426Z,7.30
2018-10-01T15:07:38.942Z,6.10
2018-10-01T15:10:08.562Z,7.73
2018-10-01T15:12:38.219Z,8.20
2018-10-01T15:15:07.910Z,9.47
2018-10-01T15:17:37.551Z,6.10
2018-10-01T15:20:07.233Z,8.77
2018-10-01T15:22:36.837Z,7.80
2018-10-01T15:25:14.288Z,7.70
2018-10-01T15:27:44.913Z,10.30
2018-10-01T15:30:14.739Z,9.03
2018-10-01T15:32:44.342Z,12.03
2018-10-01T15:35:14.819Z,9.47
2018-10-01T15:37:44.660Z,9.03
2018-10-01T15:40:14.281Z,7.60
2018-10-01T15:42:43.931Z,10.80
2018-10-01T15:45:14.108Z,8.47
2018-10-01T15:47:44.264Z,8.10
2018-10-01T15:50:14.189Z,7.53
2018-10-01T15:52:45.085Z,8.03
2018-10-01T15:55:14.750Z,8.30
2018-10-01T15:57:44.361Z,5.30
2018-10-01T16:00:17.420Z,10.40
2018-10-01T16:02:47.488Z,10.13
2018-10-01T16:05:19.274Z,8.20
2018-10-01T16:07:49.097Z,8.63
2018-10-01T16:10:20.329Z,6.30
2018-10-01T16:12:49.971Z,6.03
2018-10-01T16:15:19.743Z,8.03
2018-10-01T16:17:50.501Z,8.80
2018-10-01T16:20:20.175Z,7.53
2018-10-01T16:22:49.846Z,7.30
2018-10-01T16:25:19.481Z,8.53
2018-10-01T16:27:50.340Z,7.27
2018-10-01T16:30:20.692Z,7.03
2018-10-01T16:32:50.181Z,7.60
2018-10-01T16:35:19.981Z,8.57
2018-10-01T16:37:49.471Z,9.93
2018-10-01T16:40:18.994Z,8.40
2018-10-01T16:42:48.477Z,7.40
2018-10-01T16:45:17.917Z,6.83
2018-10-01T16:47:47.739Z,7.57
2018-10-01T16:50:17.587Z,7.00
2018-10-01T16:52:47.068Z,8.00
2018-10-01T16:55:16.662Z,6.93
2018-10-01T16:57:46.198Z,7.83
2018-10-01T17:00:16.818Z,9.80
2018-10-01T17:02:46.890Z,9.43
2018-10-01T17:05:16.389Z,9.65
2018-10-01T17:07:47.040Z,8.60
2018-10-01T17:10:16.568Z,8.33
2018-10-01T17:12:46.218Z,9.33
2018-10-01T17:15:16.792Z,9.78
2018-10-01T17:17:54.554Z,8.65
2018-10-01T17:20:25.804Z,8.45
2018-10-01T17:22:55.869Z,9.30
2018-10-01T17:25:59.544Z,7.17
2018-10-01T17:28:29.065Z,9.33
2018-10-01T17:30:58.683Z,10.80
2018-10-01T17:33:28.301Z,9.50
2018-10-01T17:35:57.869Z,9.65
2018-10-01T17:38:27.441Z,9.83
2018-10-01T17:40:56.886Z,12.65
2018-10-01T17:43:26.455Z,11.12
2018-10-01T17:45:55.987Z,9.75
2018-10-01T17:48:25.640Z,12.78
2018-10-01T17:50:55.069Z,13.38
2018-10-01T17:53:25.332Z,11.90
2018-10-01T17:55:55.244Z,11.05
2018-10-01T17:58:28.022Z,10.98
2018-10-01T18:00:57.976Z,9.53
2018-10-01T18:03:29.383Z,9.40
2018-10-01T18:05:58.942Z,12.73
2018-10-01T18:08:30.634Z,10.13
2018-10-01T18:11:01.476Z,10.32
2018-10-01T18:13:32.866Z,12.03
2018-10-01T18:42:05.305Z,11.85
2018-10-01T18:44:35.293Z,14.68
2018-10-01T18:47:05.192Z,12.30
2018-10-01T18:49:34.934Z,12.37
2018-10-01T18:52:05.020Z,14.53
2018-10-01T18:54:34.784Z,15.53
2018-10-01T18:57:04.695Z,23.30
2018-10-01T18:59:35.560Z,13.95
2018-10-01T19:02:05.394Z,14.00
2018-10-01T19:04:35.079Z,16.02
2018-10-01T19:07:04.673Z,16.07
2018-10-01T19:09:35.727Z,16.80
2018-10-01T19:12:06.062Z,15.15
2018-10-01T19:14:38.835Z,14.40
2018-10-01T19:17:08.802Z,13.08
2018-10-01T19:19:38.886Z,12.93
2018-10-01T19:22:08.540Z,15.80
2018-10-01T19:24:38.111Z,13.60
2018-10-01T19:27:07.684Z,16.20
2018-10-01T19:29:38.134Z,13.50
2018-10-01T19:32:08.382Z,14.50
2018-10-01T19:34:38.187Z,15.05
2018-10-01T19:37:08.429Z,18.87
2018-10-01T19:39:59.000Z,14.75
2018-10-01T19:42:28.633Z,14.50
2018-10-01T19:44:58.466Z,14.83
2018-10-01T19:47:28.445Z,17.05
2018-10-01T19:49:58.602Z,17.92
2018-10-01T19:52:28.339Z,16.93
2018-10-01T19:54:58.046Z,15.40
2018-10-01T19:57:28.202Z,18.65
2018-10-01T19:59:59.385Z,17.40
2018-10-01T20:02:29.792Z,21.57
2018-10-01T20:05:00.789Z,17.55
2018-10-01T20:07:30.632Z,17.70
2018-10-01T20:10:01.688Z,18.80
2018-10-01T20:12:31.394Z,17.98
2018-10-01T20:15:01.453Z,17.45
2018-10-01T20:17:33.299Z,17.65
2018-10-01T20:20:05.304Z,16.77
2018-10-01T20:22:34.946Z,17.02
2018-10-01T20:25:05.090Z,25.17
2018-10-01T20:27:34.877Z,20.55
2018-10-01T20:30:05.416Z,20.27
2018-10-01T20:32:48.271Z,21.23
2018-10-01T20:35:18.742Z,19.10
2018-10-01T20:37:48.658Z,20.37
2018-10-01T20:40:21.202Z,19.85
2018-10-01T20:42:50.987Z,20.08
2018-10-01T20:45:21.124Z,20.43
2018-10-01T20:48:20.397Z,21.10
2018-10-01T20:55:04.663Z,19.77
2018-10-01T20:57:34.665Z,21.15
2018-10-01T21:00:04.964Z,21.57
2018-10-01T21:02:36.681Z,19.70
2018-10-01T21:05:06.619Z,19.82
2018-10-01T21:07:37.917Z,24.00
2018-10-01T21:10:07.684Z,21.00
2018-10-01T21:12:37.310Z,21.80
2018-10-01T21:15:07.217Z,22.73
2018-10-01T21:17:36.910Z,22.85
2018-10-01T21:20:07.438Z,19.05
2018-10-01T21:22:37.469Z,26.02
2018-10-01T21:25:07.493Z,19.85
2018-10-01T21:27:37.137Z,20.95
2018-10-01T21:30:07.430Z,22.55
2018-10-01T21:32:37.386Z,24.70
2018-10-01T21:35:08.310Z,24.43
2018-10-01T21:37:37.986Z,24.32
2018-10-01T21:40:10.696Z,22.62
2018-10-01T21:42:40.485Z,23.67
2018-10-01T21:45:11.029Z,26.48
2018-10-01T21:47:41.054Z,24.45
2018-10-01T21:50:11.038Z,23.30
2018-10-01T21:52:40.929Z,19.80
2018-10-01T21:55:11.915Z,23.98
2018-10-01T22:01:22.530Z,24.57
2018-10-01T22:03:53.400Z,25.00
2018-10-01T22:06:23.330Z,18.87
2018-10-01T22:08:52.960Z,22.35
2018-10-01T22:11:22.864Z,24.23
2018-10-01T22:13:52.470Z,28.30
2018-10-01T22:16:22.086Z,22.32
2018-10-01T22:18:52.230Z,21.40
2018-10-01T22:21:22.244Z,23.18
2018-10-01T22:23:51.978Z,23.45
2018-10-01T22:26:21.624Z,23.83
2018-10-01T22:28:51.934Z,24.63
2018-10-01T22:31:21.822Z,20.75
2018-10-01T22:33:51.849Z,25.55
2018-10-01T22:36:21.757Z,26.30
2018-10-01T22:38:51.444Z,24.20
2018-10-01T22:41:21.088Z,23.45
2018-10-01T22:43:50.746Z,23.47
2018-10-01T22:46:20.855Z,25.10
2018-10-01T22:48:50.858Z,26.17
2018-10-01T22:51:20.690Z,33.00
2018-10-01T22:53:50.416Z,28.98
2018-10-01T22:56:21.422Z,26.20
2018-10-01T22:58:51.306Z,31.62
2018-10-01T23:01:21.249Z,26.02
2018-10-01T23:03:51.411Z,26.37
2018-10-01T23:06:21.417Z,32.65
2018-10-01T23:08:54.076Z,32.28
2018-10-01T23:11:24.187Z,32.98
2018-10-01T23:13:54.345Z,34.70
2018-10-01T23:16:24.246Z,31.48
2018-10-01T23:18:54.367Z,29.05
2018-10-01T23:21:24.628Z,35.45
2018-10-01T23:23:55.435Z,31.42
2018-10-01T23:26:29.721Z,32.95
2018-10-01T23:28:59.954Z,27.13
2018-10-01T23:31:30.375Z,35.28
2018-10-01T23:34:00.569Z,30.77
2018-10-01T23:36:30.759Z,35.33
2018-10-01T23:39:00.509Z,32.93
2018-10-01T23:41:30.379Z,29.50
2018-10-01T23:44:00.981Z,34.92
2018-10-01T23:46:31.185Z,35.90
2018-10-01T23:49:06.793Z,34.70
2018-10-01T23:51:37.587Z,37.20
2018-10-01T23:54:07.372Z,33.20
2018-10-01T23:56:37.241Z,31.73
2018-10-01T23:59:07.423Z,30.48
